NCAR-RAP Real-Time Weather Data

Output produced by METARs form (10 April 2020  07:29 UTC)
found at http://weather.rap.ucar.edu/surface/
 
KISW 100654Z AUTO 28006KT 10SM CLR M01/M06 A2996 RMK AO2 SLP158 T10111061
KISW 100554Z AUTO 31007KT 10SM CLR M01/M06 A2995 RMK AO2 SLP154 T10061056 10033 21006 400501006 51008
KISW 100454Z AUTO 31008G18KT 10SM CLR 01/M06 A2995 RMK AO2 SLP152 T00061061
KISW 100354Z AUTO 31007KT 10SM CLR 01/M06 A2994 RMK AO2 SLP148 T00061061
KISW 100254Z AUTO 32011G20KT 10SM OVC070 02/M06 A2993 RMK AO2 SLP144 T00221061 51025
KISW 100154Z AUTO 32012G22KT 10SM OVC070 03/M07 A2991 RMK AO2 SLP138 T00281072
KISW 100054Z AUTO 31013G18KT 10SM CLR 02/M07 A2988 RMK AO2 SLP129 T00221072
KISW 092354Z AUTO 33019G29KT 10SM FEW065 03/M08 A2985 RMK AO2 PK WND 31029/2351 SNE08 SLP118 P0000 60001 T00331078 10050 21006 51024
KISW 092304Z AUTO 34009G19KT 4SM -SN FEW009 SCT035 BKN070 02/M04 A2983 RMK AO2 P0000 T00221039
KISW 092254Z AUTO 35016G32KT 2SM -SN FEW020 SCT032 BKN050 02/M03 A2984 RMK AO2 PK WND 33032/2202 SNB2156E08B51 SLP114 P0000 T00171033
KISW 092154Z AUTO 34013G20KT 10SM SCT033 SCT044 BKN055 03/M04 A2981 RMK AO2 PK WND 33035/2109 RAB12E25 SLP105 P0001 T00281044
KISW 092054Z AUTO 31015G25KT 10SM FEW043 SCT070 04/M05 A2978 RMK AO2 PK WND 34028/2021 RAB25E27SNB07E39 SLP093 P0000 60000 T00391050 51010
KISW 091954Z AUTO 32016G25KT 10SM CLR 03/M03 A2978 RMK AO2 PK WND 35029/1855 SNE28 SLP092 P0000 T00331028
KISW 091927Z AUTO 30010KT 9SM -SN SCT019 BKN090 01/M02 A2977 RMK AO2 PK WND 35029/1855 P0000 T00111022
KISW 091919Z AUTO 31012G20KT 2SM -SN BR BKN021 BKN031 OVC085 00/M02 A2977 RMK AO2 PK WND 35029/1855 P0000 T00001022
KISW 091915Z AUTO 31010G20KT 1SM -SN BR BKN021 OVC031 M01/M02 A2978 RMK AO2 PK WND 35029/1855 P0000 T10061022
KISW 091905Z AUTO 33015G27KT 1/2SM SN FZFG BKN014 BKN023 OVC050 M01/M03 A2979 RMK AO2 PK WND 35029/1855 P0000 T10061028
KISW 091902Z AUTO 34014G30KT 3/4SM -SN SCT018 BKN031 OVC055 00/M03 A2979 RMK AO2 PK WND 35029/1855 P0000 T00001028
KISW 091858Z AUTO 33016G33KT 1 3/4SM -SN FEW021 BKN029 OVC050 01/M03 A2979 RMK AO2 PK WND 35029/1855 PRESRR P0000 T00061033
KISW 091854Z AUTO 35022G33KT 5SM -SN SCT027 BKN039 OVC055 02/M04 A2978 RMK AO2 PK WND 35033/1852 RAB25E26SNB26 PRESRR SLP095 P0000 T00221039
KISW 091754Z AUTO 30014G22KT 9SM SCT034 BKN070 03/M04 A2975 RMK AO2 PK WND 33031/1734 SNB21E51 SLP082 P0000 60000 T00281039 10050 20006 50004
KISW 091745Z AUTO 31014G26KT 2 1/2SM -SN BKN030 BKN039 OVC070 01/M03 A2975 RMK AO2 PK WND 33031/1734 SNB21 P0000 T00061033
KISW 091654Z AUTO 33012G27KT 10SM FEW034 SCT055 OVC075 03/M05 A2975 RMK AO2 PK WND 29032/1640 SNB00E38 SLP082 P0000 T00281050
KISW 091554Z AUTO 30018G31KT 10SM BKN045 BKN055 OVC070 04/M07 A2974 RMK AO2 PK WND 32031/1545 SLP076 T00391067
KISW 091454Z AUTO 31014G26KT 10SM FEW035 SCT043 BKN055 03/M06 A2973 RMK AO2 PK WND 32028/1431 SLP074 60000 T00281061 58005
KISW 091354Z AUTO 29014G24KT 10SM OVC031 02/M05 A2974 RMK AO2 SLP080 T00171050
KISW 091338Z AUTO 29014G24KT 10SM OVC031 02/M05 A2975 RMK AO2 T00171050
KISW 091254Z AUTO 30012G19KT 10SM BKN025 BKN060 01/M04 A2975 RMK AO2 SNB05E14 SLP081 P0000 T00111044
KISW 091245Z AUTO 29013G22KT 10SM BKN025 BKN060 01/M04 A2975 RMK AO2 SNB05E14 P0000 T00111044
KISW 091154Z AUTO 28010G19KT 10SM OVC060 01/M04 A2974 RMK AO2 SLP078 T00061044 10050 21006 55000
KISW 091054Z AUTO 27008KT 10SM CLR 00/M05 A2974 RMK AO2 SLP077 T00001050
KISW 090954Z AUTO 29009KT 10SM CLR 01/M05 A2974 RMK AO2 SLP076 T00061050
KISW 090854Z AUTO 29013G25KT 10SM CLR 01/M06 A2974 RMK AO2 SLP078 T00111056 53006